createdAt,value
2019-04-04T00:00:47.114Z,0
2019-04-04T00:01:48.071Z,0
2019-04-04T00:02:49.566Z,0
2019-04-04T00:03:47.397Z,0
2019-04-04T00:04:48.036Z,0
2019-04-04T00:05:48.684Z,0
2019-04-04T00:06:49.310Z,0
2019-04-04T00:07:49.947Z,0
2019-04-04T00:08:50.582Z,0
2019-04-04T00:09:51.217Z,0
2019-04-04T00:10:51.851Z,0
2019-04-04T00:11:52.454Z,0
2019-04-04T00:12:53.098Z,0
2019-04-04T00:13:53.755Z,0
2019-04-04T00:14:54.361Z,0
2019-04-04T00:15:55.015Z,0
2019-04-04T00:16:55.631Z,0
2019-04-04T00:17:56.267Z,0
2019-04-04T00:18:58.440Z,0
2019-04-04T00:19:58.994Z,0
2019-04-04T00:20:58.160Z,0
2019-04-04T00:21:58.793Z,0
2019-04-04T00:22:59.433Z,0
2019-04-04T00:24:00.037Z,0
2019-04-04T00:25:00.673Z,0
2019-04-04T00:26:01.318Z,0
2019-04-04T00:27:01.959Z,0
2019-04-04T00:28:02.547Z,0
2019-04-04T00:29:03.188Z,0
2019-04-04T00:30:03.821Z,0
2019-04-04T00:31:04.456Z,0
2019-04-04T00:32:05.098Z,0
2019-04-04T00:33:05.730Z,0
2019-04-04T00:34:06.367Z,0
2019-04-04T00:35:07.006Z,0
2019-04-04T00:36:07.645Z,0
2019-04-04T00:37:08.280Z,0
2019-04-04T00:38:08.915Z,0
2019-04-04T00:39:10.017Z,0
2019-04-04T00:40:11.600Z,0
2019-04-04T00:41:11.043Z,0
2019-04-04T00:42:11.442Z,0
2019-04-04T00:43:12.077Z,0
2019-04-04T00:44:12.710Z,0
2019-04-04T00:45:13.345Z,0
2019-04-04T00:46:13.979Z,0
2019-04-04T00:47:14.606Z,0
2019-04-04T00:48:15.263Z,0
2019-04-04T00:49:15.895Z,0
2019-04-04T00:50:16.535Z,0
2019-04-04T00:51:17.173Z,0
2019-04-04T00:52:17.811Z,0
2019-04-04T00:53:18.459Z,0
2019-04-04T00:54:19.088Z,0
2019-04-04T00:55:19.723Z,0
2019-04-04T00:56:20.352Z,0
2019-04-04T00:57:20.991Z,0
2019-04-04T00:58:21.628Z,0
2019-04-04T00:59:23.061Z,0
2019-04-04T01:00:23.941Z,0
2019-04-04T01:01:26.113Z,0
2019-04-04T01:02:27.125Z,0
2019-04-04T01:03:24.801Z,0
2019-04-04T01:04:25.436Z,0
2019-04-04T01:05:26.068Z,0
2019-04-04T01:06:26.704Z,0
2019-04-04T01:07:27.369Z,0
2019-04-04T01:08:27.997Z,0
2019-04-04T01:09:28.643Z,0
2019-04-04T01:10:29.251Z,0
2019-04-04T01:11:29.858Z,0
2019-04-04T01:12:30.489Z,0
2019-04-04T01:13:31.126Z,0
2019-04-04T01:14:31.769Z,0
2019-04-04T01:15:32.398Z,0
2019-04-04T01:16:33.656Z,0
2019-04-04T01:17:35.034Z,0
2019-04-04T01:18:36.665Z,0
2019-04-04T01:19:34.931Z,0
2019-04-04T01:20:35.563Z,0
2019-04-04T01:21:36.201Z,0
2019-04-04T01:22:36.834Z,0
2019-04-04T01:23:37.468Z,0
2019-04-04T01:24:38.099Z,0
2019-04-04T01:25:38.744Z,0
2019-04-04T01:26:39.363Z,0
2019-04-04T01:27:39.982Z,0
2019-04-04T01:28:40.615Z,0
2019-04-04T01:29:41.546Z,0
2019-04-04T01:30:43.586Z,0
2019-04-04T01:31:44.135Z,0
2019-04-04T01:32:43.148Z,0
2019-04-04T01:33:43.784Z,0
2019-04-04T01:34:44.432Z,0
2019-04-04T01:35:45.056Z,0
2019-04-04T01:36:45.697Z,0
2019-04-04T01:37:46.324Z,0
2019-04-04T01:38:46.959Z,0
2019-04-04T01:39:47.605Z,0
2019-04-04T01:40:48.236Z,0
2019-04-04T01:41:48.869Z,0
2019-04-04T01:42:49.507Z,0
2019-04-04T01:43:50.149Z,0
2019-04-04T01:44:50.777Z,0
2019-04-04T01:45:51.411Z,0
2019-04-04T01:46:52.044Z,0
2019-04-04T01:47:52.650Z,0
2019-04-04T01:48:53.284Z,0
2019-04-04T01:49:53.928Z,0
2019-04-04T01:50:54.557Z,0
2019-04-04T01:51:57.706Z,0
2019-04-04T01:52:58.860Z,0
2019-04-04T01:53:56.483Z,0
2019-04-04T01:54:57.127Z,0
2019-04-04T01:55:57.771Z,0
2019-04-04T01:56:58.390Z,0
2019-04-04T01:57:58.996Z,0
2019-04-04T01:58:59.634Z,0
2019-04-04T02:00:00.264Z,0
2019-04-04T02:01:00.897Z,0
2019-04-04T02:02:01.529Z,0
2019-04-04T02:03:02.165Z,0
2019-04-04T02:04:02.795Z,0
2019-04-04T02:05:03.432Z,0
2019-04-04T02:06:04.067Z,0
2019-04-04T02:07:04.705Z,0
2019-04-04T02:08:05.337Z,0
2019-04-04T02:09:05.974Z,0
2019-04-04T02:10:06.609Z,0
2019-04-04T02:11:07.244Z,0
2019-04-04T02:12:08.561Z,0
2019-04-04T02:13:09.859Z,0
2019-04-04T02:14:09.900Z,0
2019-04-04T02:15:09.794Z,0
2019-04-04T02:16:10.417Z,0
2019-04-04T02:17:11.058Z,0
2019-04-04T02:18:11.686Z,0
2019-04-04T02:19:12.322Z,0
2019-04-04T02:20:12.952Z,0
2019-04-04T02:21:13.585Z,0
2019-04-04T02:22:14.216Z,0
2019-04-04T02:23:14.849Z,0
2019-04-04T02:24:15.485Z,0
2019-04-04T02:25:16.125Z,0
2019-04-04T02:26:16.768Z,0
2019-04-04T02:27:17.409Z,0
2019-04-04T02:28:18.047Z,0
2019-04-04T02:29:18.685Z,0
2019-04-04T02:30:19.319Z,0
2019-04-04T02:31:21.149Z,0
2019-04-04T02:32:20.587Z,0
2019-04-04T02:33:21.224Z,0
2019-04-04T02:34:21.846Z,0
2019-04-04T02:35:22.478Z,0
2019-04-04T02:36:23.116Z,0
2019-04-04T02:37:23.750Z,0
2019-04-04T02:38:27.090Z,0
2019-04-04T02:39:25.017Z,0
2019-04-04T02:40:25.644Z,0
2019-04-04T02:41:26.329Z,0
2019-04-04T02:42:27.005Z,0
2019-04-04T02:43:28.634Z,0
2019-04-04T02:44:31.848Z,0
2019-04-04T02:45:29.045Z,0
2019-04-04T02:46:29.732Z,0
2019-04-04T02:47:30.418Z,0
2019-04-04T02:48:31.099Z,0
2019-04-04T02:49:31.788Z,0
2019-04-04T02:50:35.678Z,0
2019-04-04T02:51:33.117Z,0
2019-04-04T02:52:33.792Z,0
2019-04-04T02:53:34.473Z,0
2019-04-04T02:54:35.146Z,0
2019-04-04T02:55:35.868Z,0
2019-04-04T02:56:36.599Z,0
2019-04-04T02:57:41.213Z,0
2019-04-04T02:58:37.934Z,0
2019-04-04T02:59:38.591Z,0
2019-04-04T03:00:39.541Z,0
2019-04-04T03:01:40.208Z,0
2019-04-04T03:02:40.892Z,0
2019-04-04T03:03:42.276Z,0
2019-04-04T03:04:45.858Z,0
2019-04-04T03:05:42.942Z,0
2019-04-04T03:06:43.628Z,0
2019-04-04T03:07:44.310Z,0
2019-04-04T03:08:44.992Z,0
2019-04-04T03:09:45.674Z,0
2019-04-04T03:10:48.916Z,0
2019-04-04T03:11:47.042Z,0
2019-04-04T03:12:47.716Z,0
2019-04-04T03:13:48.399Z,0
2019-04-04T03:14:50.638Z,0
2019-04-04T03:15:49.762Z,0
2019-04-04T03:16:50.438Z,0
2019-04-04T03:17:51.128Z,0
2019-04-04T03:18:51.803Z,0
2019-04-04T03:19:52.497Z,0
2019-04-04T03:20:53.152Z,0
2019-04-04T03:21:55.971Z,0
2019-04-04T03:22:54.386Z,0
2019-04-04T03:23:55.029Z,0
2019-04-04T03:24:55.658Z,0
2019-04-04T03:25:56.285Z,0
2019-04-04T03:26:56.923Z,0
2019-04-04T03:27:58.433Z,0
2019-04-04T03:28:58.172Z,0
2019-04-04T03:29:58.856Z,0
2019-04-04T03:31:02.817Z,0
2019-04-04T03:32:00.217Z,0
2019-04-04T03:33:00.898Z,0
2019-04-04T03:34:08.880Z,0
2019-04-04T03:35:02.326Z,0
2019-04-04T03:36:02.940Z,0
2019-04-04T03:37:06.058Z,0
2019-04-04T03:38:04.304Z,0
2019-04-04T03:39:04.987Z,0
2019-04-04T03:40:05.666Z,0
2019-04-04T03:41:06.355Z,0
2019-04-04T03:42:08.064Z,0
2019-04-04T03:43:07.706Z,0
2019-04-04T03:44:08.384Z,0
2019-04-04T03:45:09.067Z,0
2019-04-04T03:46:09.752Z,0
2019-04-04T03:47:11.321Z,0
2019-04-04T03:48:11.108Z,0
2019-04-04T03:49:11.793Z,0
2019-04-04T03:50:12.482Z,0
2019-04-04T03:51:13.164Z,0
2019-04-04T03:52:13.844Z,0
2019-04-04T03:53:17.299Z,0
2019-04-04T03:54:15.204Z,0
2019-04-04T03:55:15.889Z,0
2019-04-04T03:56:16.579Z,0
2019-04-04T03:57:17.297Z,0
2019-04-04T03:58:17.962Z,0
2019-04-04T03:59:18.630Z,0
2019-04-04T04:00:19.306Z,0
2019-04-04T04:01:19.995Z,0
2019-04-04T04:02:20.624Z,0
2019-04-04T04:03:22.814Z,0
2019-04-04T04:04:21.952Z,0
2019-04-04T04:05:22.623Z,0
2019-04-04T04:06:23.307Z,0
2019-04-04T04:07:24.011Z,0
2019-04-04T04:08:24.672Z,0
2019-04-04T04:09:26.457Z,0
2019-04-04T04:10:25.980Z,0
2019-04-04T04:11:26.662Z,0
2019-04-04T04:12:27.345Z,0
2019-04-04T04:13:28.025Z,0
2019-04-04T04:14:28.712Z,0
2019-04-04T04:15:30.548Z,0
2019-04-04T04:16:30.063Z,0
2019-04-04T04:17:30.823Z,0
2019-04-04T04:18:31.433Z,0
2019-04-04T04:19:32.104Z,0
2019-04-04T04:20:36.116Z,0
2019-04-04T04:21:33.369Z,0
2019-04-04T04:22:34.003Z,0
2019-04-04T04:23:34.635Z,0
2019-04-04T04:24:35.270Z,0
2019-04-04T04:25:36.875Z,0
2019-04-04T04:26:40.867Z,0
2019-04-04T04:27:37.176Z,0
2019-04-04T04:28:37.810Z,0
2019-04-04T04:29:38.460Z,0
2019-04-04T04:30:40.507Z,0
2019-04-04T04:31:39.708Z,0
2019-04-04T04:32:40.341Z,0
2019-04-04T04:33:40.997Z,0
2019-04-04T04:34:41.633Z,0
2019-04-04T04:35:42.440Z,0
2019-04-04T04:36:42.904Z,0
2019-04-04T04:37:43.541Z,0
2019-04-04T04:38:44.178Z,0
2019-04-04T04:39:44.811Z,0
2019-04-04T04:40:47.483Z,0
2019-04-04T04:41:46.068Z,0
2019-04-04T04:42:46.708Z,0
2019-04-04T04:43:47.338Z,0
2019-04-04T04:44:47.979Z,0
2019-04-04T04:45:48.605Z,0
2019-04-04T04:46:50.276Z,5
2019-04-04T04:47:49.852Z,5
2019-04-04T04:48:50.489Z,5
2019-04-04T04:49:51.145Z,5
2019-04-04T04:50:51.762Z,5
2019-04-04T04:51:52.393Z,5
2019-04-04T04:52:53.030Z,5
2019-04-04T04:53:53.666Z,5
2019-04-04T04:54:54.685Z,11
2019-04-04T04:55:54.942Z,11
2019-04-04T04:56:55.546Z,11
2019-04-04T04:57:56.688Z,11
2019-04-04T04:58:56.813Z,11
2019-04-04T04:59:57.448Z,11
2019-04-04T05:00:58.089Z,11
2019-04-04T05:01:58.725Z,11
2019-04-04T05:02:59.363Z,11
2019-04-04T05:04:02.413Z,11
2019-04-04T05:05:00.627Z,11
2019-04-04T05:06:02.645Z,16
2019-04-04T05:07:01.915Z,16
2019-04-04T05:08:02.539Z,16
2019-04-04T05:09:03.222Z,16
2019-04-04T05:10:03.908Z,16
2019-04-04T05:11:04.587Z,16
2019-04-04T05:12:05.276Z,16
2019-04-04T05:13:05.958Z,16
2019-04-04T05:14:06.645Z,16
2019-04-04T05:15:07.332Z,22
2019-04-04T05:16:08.974Z,22
2019-04-04T05:17:10.113Z,22
2019-04-04T05:18:11.762Z,22
2019-04-04T05:19:10.087Z,22
2019-04-04T05:20:10.771Z,22
2019-04-04T05:21:24.183Z,22
2019-04-04T05:22:12.149Z,22
2019-04-04T05:23:15.202Z,28
2019-04-04T05:24:13.504Z,28
2019-04-04T05:25:14.198Z,33
2019-04-04T05:26:14.893Z,33
2019-04-04T05:27:15.570Z,33
2019-04-04T05:28:16.251Z,33
2019-04-04T05:29:16.902Z,33
2019-04-04T05:30:20.240Z,33
2019-04-04T05:31:18.799Z,33
2019-04-04T05:32:20.953Z,33
2019-04-04T05:33:22.498Z,39
2019-04-04T05:34:20.173Z,39
2019-04-04T05:35:20.822Z,39
2019-04-04T05:36:21.505Z,39
2019-04-04T05:37:22.170Z,45
2019-04-04T05:38:22.795Z,45
2019-04-04T05:39:23.433Z,50
2019-04-04T05:40:24.284Z,50
2019-04-04T05:41:26.971Z,50
2019-04-04T05:42:25.352Z,50
2019-04-04T05:43:25.977Z,56
2019-04-04T05:44:26.626Z,61
2019-04-04T05:45:27.265Z,73
2019-04-04T05:46:27.917Z,78
2019-04-04T05:47:28.546Z,84
2019-04-04T05:48:29.725Z,84
2019-04-04T05:49:29.827Z,90
2019-04-04T05:50:30.471Z,101
2019-04-04T05:51:31.145Z,101
2019-04-04T05:52:32.586Z,106
2019-04-04T05:53:35.033Z,106
2019-04-04T05:54:33.064Z,101
2019-04-04T05:55:33.688Z,95
2019-04-04T05:56:34.342Z,90
2019-04-04T05:57:34.962Z,90
2019-04-04T05:58:35.630Z,84
2019-04-04T05:59:36.241Z,84
2019-04-04T06:00:36.882Z,84
2019-04-04T06:01:37.519Z,84
2019-04-04T06:02:38.156Z,84
2019-04-04T06:03:38.794Z,78
2019-04-04T06:04:39.432Z,78
2019-04-04T06:05:40.096Z,78
2019-04-04T06:06:40.707Z,78
2019-04-04T06:07:41.365Z,78
2019-04-04T06:08:43.326Z,78
2019-04-04T06:09:46.134Z,78
2019-04-04T06:10:43.247Z,78
2019-04-04T06:11:43.884Z,84
2019-04-04T06:12:44.526Z,84
2019-04-04T06:13:45.163Z,90
2019-04-04T06:14:46.095Z,90
2019-04-04T06:15:46.443Z,95
2019-04-04T06:16:47.090Z,101
2019-04-04T06:17:47.681Z,112
2019-04-04T06:18:49.224Z,123
2019-04-04T06:19:48.934Z,129
2019-04-04T06:20:49.575Z,135
2019-04-04T06:21:50.557Z,135
2019-04-04T06:22:51.989Z,135
2019-04-04T06:23:51.479Z,135
2019-04-04T06:24:52.388Z,135
2019-04-04T06:25:52.808Z,140
2019-04-04T06:26:53.452Z,146
2019-04-04T06:27:54.084Z,146
2019-04-04T06:28:54.722Z,146
2019-04-04T06:29:55.360Z,151
2019-04-04T06:30:56.002Z,151
2019-04-04T06:31:59.935Z,157
2019-04-04T06:32:57.274Z,163
2019-04-04T06:33:57.913Z,168
2019-04-04T06:34:58.547Z,168
2019-04-04T06:35:59.189Z,168
2019-04-04T06:36:59.795Z,174
2019-04-04T06:38:00.435Z,180
2019-04-04T06:39:01.078Z,180
2019-04-04T06:40:01.708Z,180
2019-04-04T06:41:02.349Z,180
2019-04-04T06:42:03.925Z,180
2019-04-04T06:43:04.074Z,180
2019-04-04T06:44:04.747Z,185
2019-04-04T06:45:05.382Z,196
2019-04-04T06:46:06.021Z,208
2019-04-04T06:47:06.661Z,219
2019-04-04T06:48:07.293Z,236
2019-04-04T06:49:07.937Z,253
2019-04-04T06:50:08.656Z,270
2019-04-04T06:51:09.213Z,298
2019-04-04T06:52:09.847Z,326
2019-04-04T06:53:10.489Z,354
2019-04-04T06:54:11.129Z,388
2019-04-04T06:55:11.771Z,410
2019-04-04T06:56:12.417Z,416
2019-04-04T06:57:13.056Z,399
2019-04-04T06:58:13.667Z,365
2019-04-04T06:59:14.306Z,320
2019-04-04T07:00:15.977Z,275
2019-04-04T07:01:16.544Z,241
2019-04-04T07:02:17.188Z,213
2019-04-04T07:03:17.829Z,196
2019-04-04T07:04:18.470Z,185
2019-04-04T07:05:19.107Z,185
2019-04-04T07:06:19.747Z,185
2019-04-04T07:07:20.390Z,191
2019-04-04T07:08:21.030Z,196
2019-04-04T07:09:21.689Z,202
2019-04-04T07:10:22.310Z,208
2019-04-04T07:11:22.946Z,202
2019-04-04T07:12:28.300Z,208
2019-04-04T07:13:27.344Z,219
2019-04-04T07:14:24.854Z,230
2019-04-04T07:15:25.492Z,241
2019-04-04T07:16:26.141Z,247
2019-04-04T07:17:26.769Z,253
2019-04-04T07:18:27.410Z,258
2019-04-04T07:19:28.049Z,258
2019-04-04T07:20:28.737Z,258
2019-04-04T07:21:29.325Z,253
2019-04-04T07:22:29.971Z,247
2019-04-04T07:23:30.604Z,241
2019-04-04T07:24:31.760Z,236
2019-04-04T07:25:31.888Z,230
2019-04-04T07:26:32.530Z,225
2019-04-04T07:27:33.166Z,225
2019-04-04T07:28:33.862Z,236
2019-04-04T07:29:34.567Z,230
2019-04-04T07:30:35.244Z,230
2019-04-04T07:31:38.260Z,225
2019-04-04T07:32:36.601Z,225
2019-04-04T07:33:37.288Z,225
2019-04-04T07:34:37.979Z,230
2019-04-04T07:35:38.674Z,236
2019-04-04T07:36:39.310Z,241
2019-04-04T07:37:39.956Z,241
2019-04-04T07:38:40.595Z,230
2019-04-04T07:39:41.239Z,219
2019-04-04T07:40:41.876Z,202
2019-04-04T07:41:44.961Z,196
2019-04-04T07:42:47.047Z,191
2019-04-04T07:43:43.789Z,196
2019-04-04T07:44:44.420Z,208
2019-04-04T07:45:45.060Z,225
2019-04-04T07:46:46.076Z,230
2019-04-04T07:47:47.493Z,236
2019-04-04T07:48:46.969Z,236
2019-04-04T07:49:47.613Z,230
2019-04-04T07:50:51.231Z,219
2019-04-04T07:51:48.888Z,219
2019-04-04T07:52:49.530Z,230
2019-04-04T07:53:50.168Z,241
2019-04-04T07:54:50.814Z,241
2019-04-04T07:55:51.449Z,241
2019-04-04T07:56:52.097Z,247
2019-04-04T07:57:52.731Z,247
2019-04-04T07:58:53.383Z,253
2019-04-04T07:59:54.016Z,258
2019-04-04T08:00:54.656Z,258
2019-04-04T08:01:55.296Z,258
2019-04-04T08:02:55.936Z,258
2019-04-04T08:03:56.578Z,253
2019-04-04T08:04:57.220Z,241
2019-04-04T08:05:57.825Z,225
2019-04-04T08:06:58.470Z,219
2019-04-04T08:07:59.120Z,219
2019-04-04T08:08:59.787Z,225
2019-04-04T08:10:00.452Z,230
2019-04-04T08:11:01.094Z,236
2019-04-04T08:12:01.812Z,241
2019-04-04T08:13:02.450Z,253
2019-04-04T08:14:03.096Z,264
2019-04-04T08:15:03.727Z,275
2019-04-04T08:16:04.367Z,275
2019-04-04T08:17:05.064Z,264
2019-04-04T08:18:05.643Z,258
2019-04-04T08:19:06.285Z,258
2019-04-04T08:20:06.919Z,264
2019-04-04T08:21:07.561Z,264
2019-04-04T08:22:08.334Z,264
2019-04-04T08:23:08.836Z,270
2019-04-04T08:24:09.475Z,281
2019-04-04T08:25:10.113Z,303
2019-04-04T08:26:10.759Z,320
2019-04-04T08:27:11.401Z,315
2019-04-04T08:28:12.037Z,320
2019-04-04T08:29:12.676Z,326
2019-04-04T08:30:13.376Z,337
2019-04-04T08:31:13.951Z,343
2019-04-04T08:32:14.592Z,343
2019-04-04T08:33:15.230Z,343
2019-04-04T08:34:15.874Z,343
2019-04-04T08:35:16.511Z,343
2019-04-04T08:36:17.157Z,348
2019-04-04T08:37:17.845Z,360
2019-04-04T08:38:18.596Z,376
2019-04-04T08:39:19.372Z,388
2019-04-04T08:40:20.003Z,393
2019-04-04T08:41:20.730Z,393
2019-04-04T08:42:21.367Z,382
2019-04-04T08:43:22.012Z,382
2019-04-04T08:44:22.651Z,382
2019-04-04T08:45:23.287Z,388
2019-04-04T08:46:23.928Z,376
2019-04-04T08:47:24.581Z,360
2019-04-04T08:48:25.265Z,348
2019-04-04T08:49:25.877Z,343
2019-04-04T08:50:26.520Z,326
2019-04-04T08:51:27.153Z,331
2019-04-04T08:52:27.794Z,337
2019-04-04T08:53:39.347Z,348
2019-04-04T08:54:29.070Z,365
2019-04-04T08:55:29.720Z,388
2019-04-04T08:56:30.348Z,388
2019-04-04T08:57:30.992Z,376
2019-04-04T08:58:31.624Z,360
2019-04-04T08:59:32.262Z,354
2019-04-04T09:00:32.919Z,365
2019-04-04T09:01:33.548Z,382
2019-04-04T09:02:34.193Z,399
2019-04-04T09:03:34.826Z,416
2019-04-04T09:04:35.466Z,421
2019-04-04T09:05:36.142Z,416
2019-04-04T09:06:36.792Z,405
2019-04-04T09:07:37.439Z,405
2019-04-04T09:08:38.074Z,410
2019-04-04T09:09:38.899Z,410
2019-04-04T09:10:39.434Z,410
2019-04-04T09:11:40.083Z,405
2019-04-04T09:12:40.724Z,399
2019-04-04T09:13:41.682Z,393
2019-04-04T09:14:42.228Z,382
2019-04-04T09:15:42.871Z,360
2019-04-04T09:16:43.567Z,337
2019-04-04T09:17:44.143Z,309
2019-04-04T09:18:44.783Z,303
2019-04-04T09:19:45.428Z,286
2019-04-04T09:20:46.066Z,264
2019-04-04T09:21:46.712Z,236
2019-04-04T09:22:47.351Z,230
2019-04-04T09:23:47.987Z,225
2019-04-04T09:24:48.627Z,219
2019-04-04T09:25:49.267Z,219
2019-04-04T09:26:49.878Z,225
2019-04-04T09:27:50.514Z,225
2019-04-04T09:28:51.153Z,236
2019-04-04T09:29:51.792Z,247
2019-04-04T09:30:52.433Z,258
2019-04-04T09:31:53.074Z,270
2019-04-04T09:32:53.713Z,281
2019-04-04T09:33:54.360Z,298
2019-04-04T09:34:54.993Z,309
2019-04-04T09:35:55.636Z,309
2019-04-04T09:36:56.270Z,298
2019-04-04T09:37:56.910Z,281
2019-04-04T09:38:57.557Z,264
2019-04-04T09:39:58.196Z,258
2019-04-04T09:40:58.839Z,258
2019-04-04T09:41:59.474Z,264
2019-04-04T09:43:00.114Z,281
2019-04-04T09:44:00.753Z,298
2019-04-04T09:45:01.407Z,303
2019-04-04T09:46:02.044Z,303
2019-04-04T09:47:05.737Z,303
2019-04-04T09:48:03.322Z,298
2019-04-04T09:49:03.967Z,298
2019-04-04T09:50:04.609Z,303
2019-04-04T09:51:05.279Z,315
2019-04-04T09:52:05.893Z,343
2019-04-04T09:53:06.525Z,376
2019-04-04T09:54:07.176Z,388
2019-04-04T09:55:07.807Z,371
2019-04-04T09:56:08.452Z,365
2019-04-04T09:57:09.091Z,376
2019-04-04T09:58:09.732Z,388
2019-04-04T09:59:10.379Z,382
2019-04-04T10:00:11.025Z,376
2019-04-04T10:01:11.648Z,376
2019-04-04T10:02:12.289Z,393
2019-04-04T10:03:12.937Z,393
2019-04-04T10:04:13.574Z,371
2019-04-04T10:05:14.215Z,348
2019-04-04T10:06:14.862Z,348
2019-04-04T10:07:15.496Z,348
2019-04-04T10:08:16.248Z,376
2019-04-04T10:09:17.138Z,410
2019-04-04T10:10:17.613Z,450
2019-04-04T10:11:18.283Z,478
2019-04-04T10:12:18.931Z,517
2019-04-04T10:13:19.567Z,562
2019-04-04T10:14:20.207Z,590
2019-04-04T10:15:20.849Z,551
2019-04-04T10:16:21.498Z,590
2019-04-04T10:17:22.130Z,652
2019-04-04T10:18:22.771Z,703
2019-04-04T10:19:23.412Z,731
2019-04-04T10:20:24.057Z,765
2019-04-04T10:21:24.693Z,770
2019-04-04T10:22:25.337Z,697
2019-04-04T10:23:25.982Z,641
2019-04-04T10:24:26.691Z,641
2019-04-04T10:25:27.263Z,540
2019-04-04T10:26:27.906Z,511
2019-04-04T10:27:28.549Z,556
2019-04-04T10:28:29.184Z,551
2019-04-04T10:29:29.826Z,579
2019-04-04T10:30:30.468Z,607
2019-04-04T10:31:31.113Z,646
2019-04-04T10:32:31.752Z,590
2019-04-04T10:33:32.395Z,646
2019-04-04T10:34:33.036Z,691
2019-04-04T10:35:33.677Z,601
2019-04-04T10:36:34.322Z,635
2019-04-04T10:37:34.963Z,658
2019-04-04T10:38:35.603Z,652
2019-04-04T10:39:36.243Z,669
2019-04-04T10:40:36.886Z,613
2019-04-04T10:41:37.538Z,708
2019-04-04T10:42:38.171Z,652
2019-04-04T10:43:38.812Z,798
2019-04-04T10:44:39.455Z,1108
2019-04-04T10:45:40.102Z,1108
2019-04-04T10:46:40.765Z,1040
2019-04-04T10:47:41.399Z,1085
2019-04-04T10:48:42.034Z,1164
2019-04-04T10:49:42.677Z,1125
2019-04-04T10:50:43.324Z,1046
2019-04-04T10:51:43.964Z,978
2019-04-04T10:52:44.604Z,1153
2019-04-04T10:53:45.244Z,1338
2019-04-04T10:54:45.887Z,1085
2019-04-04T10:55:46.503Z,961
2019-04-04T10:56:47.143Z,939
2019-04-04T10:57:47.791Z,1063
2019-04-04T10:58:48.428Z,1063
2019-04-04T10:59:49.072Z,1063
2019-04-04T11:00:49.719Z,1141
2019-04-04T11:01:50.360Z,1046
2019-04-04T11:02:51.001Z,826
2019-04-04T11:03:51.660Z,765
2019-04-04T11:04:52.291Z,781
2019-04-04T11:05:52.929Z,860
2019-04-04T11:06:53.570Z,860
2019-04-04T11:07:56.660Z,832
2019-04-04T11:08:54.874Z,781
2019-04-04T11:09:55.503Z,781
2019-04-04T11:10:58.854Z,697
2019-04-04T11:11:56.795Z,607
2019-04-04T11:12:57.422Z,472
2019-04-04T11:13:58.065Z,455
2019-04-04T11:14:58.716Z,517
2019-04-04T11:15:59.361Z,562
2019-04-04T11:17:00.003Z,528
2019-04-04T11:18:00.642Z,483
2019-04-04T11:19:01.283Z,450
2019-04-04T11:20:01.924Z,444
2019-04-04T11:21:02.569Z,405
2019-04-04T11:22:03.206Z,343
2019-04-04T11:23:03.855Z,281
2019-04-04T11:24:04.491Z,225
2019-04-04T11:25:05.132Z,185
2019-04-04T11:26:05.781Z,146
2019-04-04T11:27:06.411Z,135
2019-04-04T11:28:07.057Z,146
2019-04-04T11:29:07.693Z,157
2019-04-04T11:30:08.335Z,163
2019-04-04T11:31:08.981Z,174
2019-04-04T11:32:09.616Z,191
2019-04-04T11:33:10.256Z,213
2019-04-04T11:34:11.080Z,236
2019-04-04T11:35:11.742Z,236
2019-04-04T11:36:12.380Z,236
2019-04-04T11:37:13.021Z,236
2019-04-04T11:38:13.673Z,225
2019-04-04T11:39:14.303Z,230
2019-04-04T11:40:14.944Z,236
2019-04-04T11:41:15.587Z,236
2019-04-04T11:42:16.226Z,225
2019-04-04T11:43:16.864Z,208
2019-04-04T11:44:17.504Z,191
2019-04-04T11:45:18.143Z,196
2019-04-04T11:46:18.786Z,202
2019-04-04T11:47:19.422Z,225
2019-04-04T11:48:20.062Z,241
2019-04-04T11:49:20.708Z,230
2019-04-04T11:50:21.353Z,230
2019-04-04T11:51:21.993Z,236
2019-04-04T11:52:22.633Z,270
2019-04-04T11:53:23.276Z,309
2019-04-04T11:54:23.913Z,326
2019-04-04T11:55:24.556Z,281
2019-04-04T11:56:25.202Z,247
2019-04-04T11:57:25.870Z,236
2019-04-04T11:58:26.511Z,225
2019-04-04T11:59:27.150Z,236
2019-04-04T12:00:27.789Z,247
2019-04-04T12:01:28.432Z,270
2019-04-04T12:02:32.239Z,286
2019-04-04T12:03:29.713Z,281
2019-04-04T12:04:30.349Z,286
2019-04-04T12:05:31.141Z,292
2019-04-04T12:06:31.866Z,247
2019-04-04T12:07:32.477Z,202
2019-04-04T12:08:33.126Z,174
2019-04-04T12:09:33.757Z,174
2019-04-04T12:10:34.413Z,202
2019-04-04T12:11:35.044Z,219
2019-04-04T12:12:35.682Z,230
2019-04-04T12:13:36.319Z,281
2019-04-04T12:14:36.962Z,343
2019-04-04T12:15:37.600Z,337
2019-04-04T12:16:38.252Z,309
2019-04-04T12:17:38.883Z,286
2019-04-04T12:18:39.528Z,270
2019-04-04T12:19:40.161Z,320
2019-04-04T12:20:43.145Z,376
2019-04-04T12:21:41.439Z,365
2019-04-04T12:22:42.076Z,320
2019-04-04T12:23:42.717Z,298
2019-04-04T12:24:43.359Z,320
2019-04-04T12:25:43.998Z,388
2019-04-04T12:26:44.639Z,405
2019-04-04T12:27:45.284Z,298
2019-04-04T12:28:45.918Z,247
2019-04-04T12:29:46.560Z,241
2019-04-04T12:30:47.201Z,247
2019-04-04T12:31:47.841Z,264
2019-04-04T12:32:48.486Z,281
2019-04-04T12:33:49.125Z,348
2019-04-04T12:34:49.765Z,421
2019-04-04T12:35:52.462Z,421
2019-04-04T12:36:51.040Z,382
2019-04-04T12:37:51.684Z,337
2019-04-04T12:38:52.351Z,348
2019-04-04T12:39:52.938Z,253
2019-04-04T12:40:53.576Z,225
2019-04-04T12:41:54.217Z,286
2019-04-04T12:42:54.862Z,298
2019-04-04T12:43:55.501Z,343
2019-04-04T12:44:56.105Z,410
2019-04-04T12:45:56.747Z,427
2019-04-04T12:46:57.394Z,376
2019-04-04T12:47:58.029Z,303
2019-04-04T12:48:58.679Z,264
2019-04-04T12:49:59.317Z,253
2019-04-04T12:50:59.953Z,219
2019-04-04T12:52:00.596Z,225
2019-04-04T12:53:01.312Z,247
2019-04-04T12:54:01.873Z,286
2019-04-04T12:55:02.516Z,309
2019-04-04T12:56:03.165Z,315
2019-04-04T12:57:03.799Z,309
2019-04-04T12:58:04.438Z,320
2019-04-04T12:59:05.079Z,315
2019-04-04T13:00:05.714Z,292
2019-04-04T13:01:06.369Z,275
2019-04-04T13:02:07.001Z,303
2019-04-04T13:03:07.640Z,315
2019-04-04T13:04:08.283Z,315
2019-04-04T13:05:08.928Z,365
2019-04-04T13:06:09.583Z,388
2019-04-04T13:07:10.232Z,399
2019-04-04T13:08:10.873Z,393
2019-04-04T13:09:11.513Z,376
2019-04-04T13:10:12.370Z,337
2019-04-04T13:11:12.793Z,337
2019-04-04T13:12:13.436Z,303
2019-04-04T13:13:14.081Z,258
2019-04-04T13:14:14.719Z,253
2019-04-04T13:15:15.359Z,241
2019-04-04T13:16:16.005Z,264
2019-04-04T13:17:16.649Z,270
2019-04-04T13:18:17.286Z,241
2019-04-04T13:19:17.925Z,258
2019-04-04T13:20:18.568Z,264
2019-04-04T13:21:21.378Z,258
2019-04-04T13:22:19.855Z,270
2019-04-04T13:23:20.498Z,298
2019-04-04T13:24:21.140Z,292
2019-04-04T13:25:21.768Z,303
2019-04-04T13:26:22.405Z,270
2019-04-04T13:27:23.050Z,264
2019-04-04T13:28:23.693Z,202
2019-04-04T13:29:24.335Z,196
2019-04-04T13:30:24.974Z,213
2019-04-04T13:31:25.610Z,180
2019-04-04T13:32:26.247Z,174
2019-04-04T13:33:26.888Z,163
2019-04-04T13:34:27.525Z,202
2019-04-04T13:35:28.166Z,213
2019-04-04T13:36:28.808Z,196
2019-04-04T13:37:29.460Z,208
2019-04-04T13:38:30.096Z,241
2019-04-04T13:39:30.735Z,253
2019-04-04T13:40:31.374Z,247
2019-04-04T13:41:32.015Z,230
2019-04-04T13:42:32.662Z,225
2019-04-04T13:43:33.306Z,230
2019-04-04T13:44:33.947Z,208
2019-04-04T13:45:34.582Z,219
2019-04-04T13:46:35.222Z,208
2019-04-04T13:47:38.294Z,163
2019-04-04T13:48:36.508Z,140
2019-04-04T13:49:37.148Z,174
2019-04-04T13:50:37.789Z,241
2019-04-04T13:51:38.430Z,258
2019-04-04T13:52:39.070Z,208
2019-04-04T13:53:41.338Z,196
2019-04-04T13:54:40.347Z,219
2019-04-04T13:55:40.987Z,180
2019-04-04T13:56:41.668Z,191
2019-04-04T13:57:42.268Z,202
2019-04-04T13:58:42.907Z,230
2019-04-04T13:59:43.553Z,253
2019-04-04T14:00:44.193Z,219
2019-04-04T14:01:44.828Z,236
2019-04-04T14:02:45.464Z,230
2019-04-04T14:03:46.105Z,275
2019-04-04T14:04:46.747Z,241
2019-04-04T14:05:47.392Z,219
2019-04-04T14:06:48.031Z,213
2019-04-04T14:07:48.691Z,213
2019-04-04T14:08:49.318Z,241
2019-04-04T14:09:49.954Z,247
2019-04-04T14:10:58.093Z,236
2019-04-04T14:11:51.235Z,213
2019-04-04T14:12:51.872Z,202
2019-04-04T14:13:52.509Z,196
2019-04-04T14:14:53.152Z,180
2019-04-04T14:15:53.763Z,191
2019-04-04T14:16:54.408Z,219
2019-04-04T14:17:55.045Z,196